sensor_id;sensor_type;location;lat;lon;timestamp;P1;durP1;ratioP1;P2;durP2;ratioP2
48861;SDS011;34681;49.188;-0.374;2022-12-18T00:01:29;35.57;;;23.67;;
48861;SDS011;34681;49.188;-0.374;2022-12-18T00:03:56;32.27;;;24.43;;
48861;SDS011;34681;49.188;-0.374;2022-12-18T00:06:23;35.83;;;24.43;;
48861;SDS011;34681;49.188;-0.374;2022-12-18T00:08:49;32.90;;;24.27;;
48861;SDS011;34681;49.188;-0.374;2022-12-18T00:11:16;35.40;;;25.13;;
48861;SDS011;34681;49.188;-0.374;2022-12-18T00:13:43;33.73;;;23.47;;
48861;SDS011;34681;49.188;-0.374;2022-12-18T00:16:11;34.50;;;23.47;;
48861;SDS011;34681;49.188;-0.374;2022-12-18T00:18:38;30.73;;;23.57;;
48861;SDS011;34681;49.188;-0.374;2022-12-18T00:21:04;30.57;;;23.00;;
48861;SDS011;34681;49.188;-0.374;2022-12-18T00:23:32;28.10;;;20.83;;
48861;SDS011;34681;49.188;-0.374;2022-12-18T00:26:02;31.67;;;23.17;;
48861;SDS011;34681;49.188;-0.374;2022-12-18T00:28:29;32.07;;;23.10;;
48861;SDS011;34681;49.188;-0.374;2022-12-18T00:31:01;29.23;;;22.43;;
48861;SDS011;34681;49.188;-0.374;2022-12-18T00:33:28;30.53;;;22.50;;
48861;SDS011;34681;49.188;-0.374;2022-12-18T00:35:54;38.77;;;24.33;;
48861;SDS011;34681;49.188;-0.374;2022-12-18T00:38:20;34.33;;;24.07;;
48861;SDS011;34681;49.188;-0.374;2022-12-18T00:40:45;31.97;;;23.27;;
48861;SDS011;34681;49.188;-0.374;2022-12-18T00:43:10;37.73;;;27.07;;
48861;SDS011;34681;49.188;-0.374;2022-12-18T00:45:36;32.23;;;22.60;;
48861;SDS011;34681;49.188;-0.374;2022-12-18T00:48:01;29.90;;;22.47;;
48861;SDS011;34681;49.188;-0.374;2022-12-18T00:50:26;34.77;;;23.67;;
48861;SDS011;34681;49.188;-0.374;2022-12-18T00:52:52;29.53;;;20.67;;
48861;SDS011;34681;49.188;-0.374;2022-12-18T00:55:17;31.50;;;20.43;;
48861;SDS011;34681;49.188;-0.374;2022-12-18T00:57:43;29.00;;;21.00;;
48861;SDS011;34681;49.188;-0.374;2022-12-18T01:00:11;23.30;;;19.13;;
48861;SDS011;34681;49.188;-0.374;2022-12-18T01:02:39;24.90;;;19.93;;
48861;SDS011;34681;49.188;-0.374;2022-12-18T01:05:05;29.60;;;22.00;;
48861;SDS011;34681;49.188;-0.374;2022-12-18T01:07:31;27.97;;;19.30;;
48861;SDS011;34681;49.188;-0.374;2022-12-18T01:09:56;27.70;;;21.53;;
48861;SDS011;34681;49.188;-0.374;2022-12-18T01:12:22;29.90;;;20.70;;
48861;SDS011;34681;49.188;-0.374;2022-12-18T01:14:47;25.00;;;18.60;;
48861;SDS011;34681;49.188;-0.374;2022-12-18T01:17:12;23.97;;;18.57;;
48861;SDS011;34681;49.188;-0.374;2022-12-18T01:19:38;29.30;;;19.50;;
48861;SDS011;34681;49.188;-0.374;2022-12-18T01:22:03;26.40;;;19.87;;
48861;SDS011;34681;49.188;-0.374;2022-12-18T01:24:29;27.27;;;19.70;;
48861;SDS011;34681;49.188;-0.374;2022-12-18T01:26:54;28.00;;;20.20;;
48861;SDS011;34681;49.188;-0.374;2022-12-18T01:29:20;24.87;;;18.77;;
48861;SDS011;34681;49.188;-0.374;2022-12-18T01:31:46;21.10;;;16.70;;
48861;SDS011;34681;49.188;-0.374;2022-12-18T01:34:11;32.23;;;20.27;;
48861;SDS011;34681;49.188;-0.374;2022-12-18T01:36:37;24.93;;;18.10;;
48861;SDS011;34681;49.188;-0.374;2022-12-18T01:39:07;26.03;;;18.73;;
48861;SDS011;34681;49.188;-0.374;2022-12-18T01:41:36;23.57;;;18.13;;
48861;SDS011;34681;49.188;-0.374;2022-12-18T01:47:15;24.23;;;18.30;;
48861;SDS011;34681;49.188;-0.374;2022-12-18T01:49:46;26.30;;;18.87;;
48861;SDS011;34681;49.188;-0.374;2022-12-18T01:52:12;25.60;;;19.80;;
48861;SDS011;34681;49.188;-0.374;2022-12-18T01:54:38;21.60;;;17.40;;
48861;SDS011;34681;49.188;-0.374;2022-12-18T01:57:04;25.17;;;18.93;;
48861;SDS011;34681;49.188;-0.374;2022-12-18T01:59:29;23.90;;;19.20;;
48861;SDS011;34681;49.188;-0.374;2022-12-18T02:01:59;29.60;;;18.77;;
48861;SDS011;34681;49.188;-0.374;2022-12-18T02:04:25;28.60;;;20.83;;
48861;SDS011;34681;49.188;-0.374;2022-12-18T02:06:57;23.90;;;17.60;;
48861;SDS011;34681;49.188;-0.374;2022-12-18T02:09:50;27.30;;;19.57;;
48861;SDS011;34681;49.188;-0.374;2022-12-18T02:12:45;25.43;;;18.53;;
48861;SDS011;34681;49.188;-0.374;2022-12-18T02:15:30;31.27;;;21.37;;
48861;SDS011;34681;49.188;-0.374;2022-12-18T02:18:12;26.40;;;17.90;;
48861;SDS011;34681;49.188;-0.374;2022-12-18T02:20:59;27.53;;;19.20;;
48861;SDS011;34681;49.188;-0.374;2022-12-18T02:26:16;26.67;;;19.43;;
48861;SDS011;34681;49.188;-0.374;2022-12-18T02:29:06;26.80;;;20.00;;
48861;SDS011;34681;49.188;-0.374;2022-12-18T02:31:37;27.73;;;20.70;;
48861;SDS011;34681;49.188;-0.374;2022-12-18T02:34:08;28.97;;;19.93;;
48861;SDS011;34681;49.188;-0.374;2022-12-18T02:36:36;30.20;;;22.57;;
48861;SDS011;34681;49.188;-0.374;2022-12-18T02:39:04;26.80;;;19.50;;
48861;SDS011;34681;49.188;-0.374;2022-12-18T02:41:32;30.03;;;21.70;;
48861;SDS011;34681;49.188;-0.374;2022-12-18T02:43:58;29.13;;;21.03;;
48861;SDS011;34681;49.188;-0.374;2022-12-18T02:49:21;33.33;;;21.50;;
48861;SDS011;34681;49.188;-0.374;2022-12-18T02:57:04;29.97;;;20.63;;
48861;SDS011;34681;49.188;-0.374;2022-12-18T02:59:41;23.40;;;17.60;;
48861;SDS011;34681;49.188;-0.374;2022-12-18T03:05:08;25.00;;;19.17;;
48861;SDS011;34681;49.188;-0.374;2022-12-18T03:08:01;27.10;;;19.67;;
48861;SDS011;34681;49.188;-0.374;2022-12-18T03:10:45;27.17;;;19.00;;
48861;SDS011;34681;49.188;-0.374;2022-12-18T03:13:19;27.57;;;20.93;;
48861;SDS011;34681;49.188;-0.374;2022-12-18T03:15:50;28.17;;;19.57;;
48861;SDS011;34681;49.188;-0.374;2022-12-18T03:18:35;31.47;;;22.00;;
48861;SDS011;34681;49.188;-0.374;2022-12-18T03:21:23;26.07;;;19.50;;
48861;SDS011;34681;49.188;-0.374;2022-12-18T03:23:54;28.40;;;19.67;;
48861;SDS011;34681;49.188;-0.374;2022-12-18T03:26:22;27.40;;;18.40;;
48861;SDS011;34681;49.188;-0.374;2022-12-18T03:28:51;29.77;;;19.57;;
48861;SDS011;34681;49.188;-0.374;2022-12-18T03:31:21;33.60;;;22.00;;
48861;SDS011;34681;49.188;-0.374;2022-12-18T03:33:56;30.20;;;20.03;;
48861;SDS011;34681;49.188;-0.374;2022-12-18T03:36:25;27.77;;;19.90;;
48861;SDS011;34681;49.188;-0.374;2022-12-18T03:38:51;28.90;;;19.63;;
48861;SDS011;34681;49.188;-0.374;2022-12-18T03:41:19;23.67;;;18.40;;
48861;SDS011;34681;49.188;-0.374;2022-12-18T03:44:26;25.70;;;19.03;;
48861;SDS011;34681;49.188;-0.374;2022-12-18T03:52:23;25.30;;;19.67;;
48861;SDS011;34681;49.188;-0.374;2022-12-18T03:54:53;25.73;;;19.17;;
48861;SDS011;34681;49.188;-0.374;2022-12-18T03:57:22;23.87;;;18.90;;
48861;SDS011;34681;49.188;-0.374;2022-12-18T03:59:51;29.13;;;20.63;;
48861;SDS011;34681;49.188;-0.374;2022-12-18T04:02:21;23.10;;;19.83;;
48861;SDS011;34681;49.188;-0.374;2022-12-18T04:04:48;25.50;;;19.20;;
48861;SDS011;34681;49.188;-0.374;2022-12-18T04:07:18;29.67;;;19.87;;
48861;SDS011;34681;49.188;-0.374;2022-12-18T04:09:45;26.43;;;18.83;;
48861;SDS011;34681;49.188;-0.374;2022-12-18T04:12:11;27.10;;;19.13;;
48861;SDS011;34681;49.188;-0.374;2022-12-18T04:14:36;27.80;;;20.37;;
48861;SDS011;34681;49.188;-0.374;2022-12-18T04:17:02;28.73;;;20.80;;
48861;SDS011;34681;49.188;-0.374;2022-12-18T04:19:28;28.77;;;20.70;;
48861;SDS011;34681;49.188;-0.374;2022-12-18T04:21:53;28.70;;;20.30;;
48861;SDS011;34681;49.188;-0.374;2022-12-18T04:24:19;24.43;;;18.60;;
48861;SDS011;34681;49.188;-0.374;2022-12-18T04:26:44;25.77;;;19.10;;
48861;SDS011;34681;49.188;-0.374;2022-12-18T04:29:10;33.10;;;21.30;;
48861;SDS011;34681;49.188;-0.374;2022-12-18T04:31:35;25.23;;;18.90;;
48861;SDS011;34681;49.188;-0.374;2022-12-18T04:34:01;29.13;;;20.63;;
48861;SDS011;34681;49.188;-0.374;2022-12-18T04:36:26;30.90;;;21.60;;
48861;SDS011;34681;49.188;-0.374;2022-12-18T04:38:52;27.50;;;20.70;;
48861;SDS011;34681;49.188;-0.374;2022-12-18T04:41:17;24.47;;;18.80;;
48861;SDS011;34681;49.188;-0.374;2022-12-18T04:43:43;27.77;;;20.80;;
48861;SDS011;34681;49.188;-0.374;2022-12-18T04:46:08;27.60;;;20.67;;
48861;SDS011;34681;49.188;-0.374;2022-12-18T04:48:34;28.77;;;20.40;;
48861;SDS011;34681;49.188;-0.374;2022-12-18T04:51:00;26.53;;;20.00;;
48861;SDS011;34681;49.188;-0.374;2022-12-18T04:53:25;26.23;;;19.83;;
48861;SDS011;34681;49.188;-0.374;2022-12-18T04:56:01;32.40;;;21.97;;
48861;SDS011;34681;49.188;-0.374;2022-12-18T04:58:28;25.07;;;19.47;;
48861;SDS011;34681;49.188;-0.374;2022-12-18T05:00:53;25.87;;;19.87;;
48861;SDS011;34681;49.188;-0.374;2022-12-18T05:03:18;26.83;;;20.93;;
48861;SDS011;34681;49.188;-0.374;2022-12-18T05:05:44;26.83;;;19.73;;
48861;SDS011;34681;49.188;-0.374;2022-12-18T05:08:09;29.23;;;21.20;;
48861;SDS011;34681;49.188;-0.374;2022-12-18T05:10:34;28.70;;;20.90;;
48861;SDS011;34681;49.188;-0.374;2022-12-18T05:13:00;28.00;;;18.80;;
48861;SDS011;34681;49.188;-0.374;2022-12-18T05:15:31;31.30;;;20.63;;
48861;SDS011;34681;49.188;-0.374;2022-12-18T05:17:58;29.67;;;21.00;;
48861;SDS011;34681;49.188;-0.374;2022-12-18T05:20:24;32.50;;;21.50;;
48861;SDS011;34681;49.188;-0.374;2022-12-18T05:22:50;28.03;;;19.80;;
48861;SDS011;34681;49.188;-0.374;2022-12-18T05:25:16;30.10;;;22.03;;
48861;SDS011;34681;49.188;-0.374;2022-12-18T05:27:42;30.63;;;19.33;;
48861;SDS011;34681;49.188;-0.374;2022-12-18T05:30:07;27.27;;;20.10;;
48861;SDS011;34681;49.188;-0.374;2022-12-18T05:32:34;31.30;;;21.23;;
48861;SDS011;34681;49.188;-0.374;2022-12-18T05:34:59;28.70;;;19.93;;
48861;SDS011;34681;49.188;-0.374;2022-12-18T05:37:25;29.53;;;21.23;;
48861;SDS011;34681;49.188;-0.374;2022-12-18T05:39:50;25.80;;;20.77;;
48861;SDS011;34681;49.188;-0.374;2022-12-18T05:42:15;29.93;;;20.20;;
48861;SDS011;34681;49.188;-0.374;2022-12-18T05:44:41;31.40;;;21.30;;
48861;SDS011;34681;49.188;-0.374;2022-12-18T05:47:06;30.80;;;20.80;;
48861;SDS011;34681;49.188;-0.374;2022-12-18T05:49:31;26.53;;;20.70;;
48861;SDS011;34681;49.188;-0.374;2022-12-18T05:51:57;34.00;;;23.53;;
48861;SDS011;34681;49.188;-0.374;2022-12-18T05:54:22;29.77;;;21.37;;
48861;SDS011;34681;49.188;-0.374;2022-12-18T05:56:47;31.47;;;21.70;;
48861;SDS011;34681;49.188;-0.374;2022-12-18T05:59:13;30.90;;;22.07;;
48861;SDS011;34681;49.188;-0.374;2022-12-18T06:01:38;25.97;;;19.53;;
48861;SDS011;34681;49.188;-0.374;2022-12-18T06:04:04;28.20;;;21.17;;
48861;SDS011;34681;49.188;-0.374;2022-12-18T06:06:29;34.60;;;23.73;;
48861;SDS011;34681;49.188;-0.374;2022-12-18T06:08:55;28.40;;;21.10;;
48861;SDS011;34681;49.188;-0.374;2022-12-18T06:11:22;28.80;;;20.90;;
48861;SDS011;34681;49.188;-0.374;2022-12-18T06:13:49;31.80;;;21.60;;
48861;SDS011;34681;49.188;-0.374;2022-12-18T06:16:18;27.03;;;19.60;;
48861;SDS011;34681;49.188;-0.374;2022-12-18T06:18:44;30.30;;;20.20;;
48861;SDS011;34681;49.188;-0.374;2022-12-18T06:21:09;32.87;;;20.70;;
48861;SDS011;34681;49.188;-0.374;2022-12-18T06:23:35;31.50;;;22.00;;
48861;SDS011;34681;49.188;-0.374;2022-12-18T06:26:08;28.13;;;21.00;;
48861;SDS011;34681;49.188;-0.374;2022-12-18T06:28:38;29.27;;;19.00;;
48861;SDS011;34681;49.188;-0.374;2022-12-18T06:31:04;28.90;;;21.07;;
48861;SDS011;34681;49.188;-0.374;2022-12-18T06:33:30;28.80;;;21.30;;
48861;SDS011;34681;49.188;-0.374;2022-12-18T06:36:03;29.10;;;20.97;;
48861;SDS011;34681;49.188;-0.374;2022-12-18T06:38:31;28.80;;;20.80;;
48861;SDS011;34681;49.188;-0.374;2022-12-18T06:40:57;30.67;;;20.90;;
48861;SDS011;34681;49.188;-0.374;2022-12-18T06:43:23;27.83;;;21.30;;
48861;SDS011;34681;49.188;-0.374;2022-12-18T06:45:48;32.03;;;21.03;;
48861;SDS011;34681;49.188;-0.374;2022-12-18T06:48:17;30.87;;;20.90;;
48861;SDS011;34681;49.188;-0.374;2022-12-18T06:50:44;28.30;;;20.63;;
48861;SDS011;34681;49.188;-0.374;2022-12-18T06:53:09;25.50;;;19.20;;
48861;SDS011;34681;49.188;-0.374;2022-12-18T06:55:35;26.40;;;19.60;;
48861;SDS011;34681;49.188;-0.374;2022-12-18T06:58:00;24.83;;;19.63;;
48861;SDS011;34681;49.188;-0.374;2022-12-18T07:00:25;30.03;;;19.70;;
48861;SDS011;34681;49.188;-0.374;2022-12-18T07:02:51;28.30;;;19.17;;
48861;SDS011;34681;49.188;-0.374;2022-12-18T07:05:16;28.83;;;20.90;;
48861;SDS011;34681;49.188;-0.374;2022-12-18T07:07:41;29.30;;;20.77;;
48861;SDS011;34681;49.188;-0.374;2022-12-18T07:10:07;27.50;;;20.30;;
48861;SDS011;34681;49.188;-0.374;2022-12-18T07:12:32;28.63;;;21.13;;
48861;SDS011;34681;49.188;-0.374;2022-12-18T07:14:58;27.67;;;20.20;;
48861;SDS011;34681;49.188;-0.374;2022-12-18T07:17:23;27.03;;;20.20;;
48861;SDS011;34681;49.188;-0.374;2022-12-18T07:19:48;29.67;;;21.47;;
48861;SDS011;34681;49.188;-0.374;2022-12-18T07:22:14;26.77;;;20.47;;
48861;SDS011;34681;49.188;-0.374;2022-12-18T07:24:39;27.10;;;19.47;;
48861;SDS011;34681;49.188;-0.374;2022-12-18T07:27:04;27.23;;;20.27;;
48861;SDS011;34681;49.188;-0.374;2022-12-18T07:29:30;30.40;;;20.63;;
48861;SDS011;34681;49.188;-0.374;2022-12-18T07:31:55;26.27;;;19.10;;
48861;SDS011;34681;49.188;-0.374;2022-12-18T07:34:21;28.90;;;20.17;;
48861;SDS011;34681;49.188;-0.374;2022-12-18T07:36:46;27.50;;;20.27;;
48861;SDS011;34681;49.188;-0.374;2022-12-18T07:39:12;33.00;;;21.50;;
48861;SDS011;34681;49.188;-0.374;2022-12-18T07:41:37;29.50;;;19.67;;
48861;SDS011;34681;49.188;-0.374;2022-12-18T07:44:02;31.03;;;19.60;;
48861;SDS011;34681;49.188;-0.374;2022-12-18T07:46:28;31.90;;;21.47;;
48861;SDS011;34681;49.188;-0.374;2022-12-18T07:48:53;26.10;;;19.63;;
48861;SDS011;34681;49.188;-0.374;2022-12-18T07:51:19;28.83;;;20.90;;
48861;SDS011;34681;49.188;-0.374;2022-12-18T07:53:44;27.77;;;20.33;;
48861;SDS011;34681;49.188;-0.374;2022-12-18T07:56:10;31.50;;;23.27;;
48861;SDS011;34681;49.188;-0.374;2022-12-18T07:58:37;29.97;;;20.63;;
48861;SDS011;34681;49.188;-0.374;2022-12-18T08:01:03;26.83;;;21.33;;
48861;SDS011;34681;49.188;-0.374;2022-12-18T08:03:30;26.20;;;19.87;;
48861;SDS011;34681;49.188;-0.374;2022-12-18T08:06:02;26.40;;;19.40;;
48861;SDS011;34681;49.188;-0.374;2022-12-18T08:08:29;29.87;;;23.60;;
48861;SDS011;34681;49.188;-0.374;2022-12-18T08:10:55;26.97;;;20.50;;
48861;SDS011;34681;49.188;-0.374;2022-12-18T08:13:21;27.37;;;20.27;;
48861;SDS011;34681;49.188;-0.374;2022-12-18T08:15:57;29.70;;;22.93;;
48861;SDS011;34681;49.188;-0.374;2022-12-18T08:18:29;27.83;;;22.27;;
48861;SDS011;34681;49.188;-0.374;2022-12-18T08:20:56;29.03;;;21.10;;
48861;SDS011;34681;49.188;-0.374;2022-12-18T08:23:22;27.90;;;20.23;;
48861;SDS011;34681;49.188;-0.374;2022-12-18T08:25:47;31.57;;;23.10;;
48861;SDS011;34681;49.188;-0.374;2022-12-18T08:28:13;33.83;;;21.33;;
48861;SDS011;34681;49.188;-0.374;2022-12-18T08:30:38;27.40;;;20.90;;
48861;SDS011;34681;49.188;-0.374;2022-12-18T08:33:04;34.17;;;22.77;;
48861;SDS011;34681;49.188;-0.374;2022-12-18T08:35:30;28.60;;;20.60;;
48861;SDS011;34681;49.188;-0.374;2022-12-18T08:37:55;28.40;;;20.40;;
48861;SDS011;34681;49.188;-0.374;2022-12-18T08:40:20;31.40;;;21.00;;
48861;SDS011;34681;49.188;-0.374;2022-12-18T08:42:46;32.00;;;22.50;;
48861;SDS011;34681;49.188;-0.374;2022-12-18T08:45:30;33.37;;;23.47;;
48861;SDS011;34681;49.188;-0.374;2022-12-18T08:47:55;28.47;;;21.90;;
48861;SDS011;34681;49.188;-0.374;2022-12-18T08:50:20;29.40;;;21.00;;
48861;SDS011;34681;49.188;-0.374;2022-12-18T08:52:46;30.90;;;18.90;;
48861;SDS011;34681;49.188;-0.374;2022-12-18T08:55:11;31.73;;;21.03;;
48861;SDS011;34681;49.188;-0.374;2022-12-18T08:57:37;32.57;;;23.10;;
48861;SDS011;34681;49.188;-0.374;2022-12-18T09:00:03;27.60;;;19.73;;
48861;SDS011;34681;49.188;-0.374;2022-12-18T09:02:29;33.43;;;21.47;;
48861;SDS011;34681;49.188;-0.374;2022-12-18T09:04:54;30.90;;;22.00;;
48861;SDS011;34681;49.188;-0.374;2022-12-18T09:07:20;27.10;;;19.50;;
48861;SDS011;34681;49.188;-0.374;2022-12-18T09:09:45;28.30;;;20.60;;
48861;SDS011;34681;49.188;-0.374;2022-12-18T09:12:10;29.10;;;20.33;;
48861;SDS011;34681;49.188;-0.374;2022-12-18T09:14:36;27.90;;;20.20;;
48861;SDS011;34681;49.188;-0.374;2022-12-18T09:17:01;28.20;;;20.60;;
48861;SDS011;34681;49.188;-0.374;2022-12-18T09:19:26;33.27;;;22.77;;
48861;SDS011;34681;49.188;-0.374;2022-12-18T09:21:52;34.17;;;21.93;;
48861;SDS011;34681;49.188;-0.374;2022-12-18T09:24:17;33.00;;;21.27;;
48861;SDS011;34681;49.188;-0.374;2022-12-18T09:26:43;26.33;;;19.27;;
48861;SDS011;34681;49.188;-0.374;2022-12-18T09:29:09;28.30;;;21.30;;
48861;SDS011;34681;49.188;-0.374;2022-12-18T09:31:34;25.47;;;19.60;;
48861;SDS011;34681;49.188;-0.374;2022-12-18T09:34:00;30.50;;;22.03;;
48861;SDS011;34681;49.188;-0.374;2022-12-18T09:36:26;30.50;;;20.60;;
48861;SDS011;34681;49.188;-0.374;2022-12-18T09:38:51;26.80;;;19.57;;
48861;SDS011;34681;49.188;-0.374;2022-12-18T09:46:46;32.63;;;22.73;;
48861;SDS011;34681;49.188;-0.374;2022-12-18T09:49:17;28.37;;;19.53;;
48861;SDS011;34681;49.188;-0.374;2022-12-18T09:54:22;28.40;;;20.20;;
48861;SDS011;34681;49.188;-0.374;2022-12-18T09:56:50;26.20;;;20.10;;
48861;SDS011;34681;49.188;-0.374;2022-12-18T09:59:26;29.23;;;21.70;;
48861;SDS011;34681;49.188;-0.374;2022-12-18T10:01:59;31.00;;;23.53;;
48861;SDS011;34681;49.188;-0.374;2022-12-18T10:04:24;31.07;;;21.77;;
48861;SDS011;34681;49.188;-0.374;2022-12-18T10:06:54;32.27;;;21.13;;
48861;SDS011;34681;49.188;-0.374;2022-12-18T10:09:43;29.87;;;21.47;;
48861;SDS011;34681;49.188;-0.374;2022-12-18T10:12:40;32.13;;;21.53;;
48861;SDS011;34681;49.188;-0.374;2022-12-18T10:15:26;28.40;;;20.57;;
48861;SDS011;34681;49.188;-0.374;2022-12-18T10:20:54;28.27;;;20.40;;
48861;SDS011;34681;49.188;-0.374;2022-12-18T10:23:33;26.13;;;18.70;;
48861;SDS011;34681;49.188;-0.374;2022-12-18T10:26:16;30.30;;;21.77;;
48861;SDS011;34681;49.188;-0.374;2022-12-18T10:28:42;22.60;;;18.07;;
48861;SDS011;34681;49.188;-0.374;2022-12-18T10:31:19;22.23;;;17.17;;
48861;SDS011;34681;49.188;-0.374;2022-12-18T10:33:46;22.13;;;16.80;;
48861;SDS011;34681;49.188;-0.374;2022-12-18T10:36:12;21.40;;;16.07;;
48861;SDS011;34681;49.188;-0.374;2022-12-18T10:38:37;21.60;;;17.90;;
48861;SDS011;34681;49.188;-0.374;2022-12-18T10:41:22;22.87;;;19.30;;
48861;SDS011;34681;49.188;-0.374;2022-12-18T10:44:37;25.70;;;19.07;;
48861;SDS011;34681;49.188;-0.374;2022-12-18T10:46:42;23.33;;;18.40;;
48861;SDS011;34681;49.188;-0.374;2022-12-18T10:49:23;26.50;;;19.30;;
48861;SDS011;34681;49.188;-0.374;2022-12-18T10:51:51;25.37;;;20.67;;
48861;SDS011;34681;49.188;-0.374;2022-12-18T10:54:37;26.73;;;18.47;;
48861;SDS011;34681;49.188;-0.374;2022-12-18T10:59:52;23.57;;;18.67;;
48861;SDS011;34681;49.188;-0.374;2022-12-18T11:05:01;22.67;;;17.30;;
48861;SDS011;34681;49.188;-0.374;2022-12-18T11:10:15;22.07;;;17.73;;
48861;SDS011;34681;49.188;-0.374;2022-12-18T11:12:43;20.07;;;16.10;;
48861;SDS011;34681;49.188;-0.374;2022-12-18T11:15:16;23.10;;;17.23;;
48861;SDS011;34681;49.188;-0.374;2022-12-18T11:17:46;24.73;;;16.67;;
48861;SDS011;34681;49.188;-0.374;2022-12-18T11:20:34;20.80;;;15.83;;
48861;SDS011;34681;49.188;-0.374;2022-12-18T11:23:05;22.40;;;18.50;;
48861;SDS011;34681;49.188;-0.374;2022-12-18T11:25:37;22.97;;;17.77;;
48861;SDS011;34681;49.188;-0.374;2022-12-18T11:28:04;27.03;;;18.90;;
48861;SDS011;34681;49.188;-0.374;2022-12-18T11:30:49;25.13;;;17.70;;
48861;SDS011;34681;49.188;-0.374;2022-12-18T11:33:37;24.03;;;18.60;;
48861;SDS011;34681;49.188;-0.374;2022-12-18T11:36:06;22.00;;;16.57;;
48861;SDS011;34681;49.188;-0.374;2022-12-18T11:38:38;22.13;;;18.23;;
48861;SDS011;34681;49.188;-0.374;2022-12-18T11:41:07;26.17;;;17.70;;
48861;SDS011;34681;49.188;-0.374;2022-12-18T11:43:43;26.53;;;20.97;;
48861;SDS011;34681;49.188;-0.374;2022-12-18T11:46:19;24.37;;;17.13;;
48861;SDS011;34681;49.188;-0.374;2022-12-18T11:48:58;24.33;;;18.60;;
48861;SDS011;34681;49.188;-0.374;2022-12-18T11:51:28;24.50;;;19.53;;
48861;SDS011;34681;49.188;-0.374;2022-12-18T11:54:01;29.40;;;20.20;;
48861;SDS011;34681;49.188;-0.374;2022-12-18T11:56:39;26.93;;;20.53;;
48861;SDS011;34681;49.188;-0.374;2022-12-18T12:02:48;22.83;;;19.13;;
48861;SDS011;34681;49.188;-0.374;2022-12-18T12:05:18;24.43;;;20.10;;
48861;SDS011;34681;49.188;-0.374;2022-12-18T12:16:51;30.53;;;20.87;;
48861;SDS011;34681;49.188;-0.374;2022-12-18T12:22:13;25.20;;;20.50;;
48861;SDS011;34681;49.188;-0.374;2022-12-18T12:33:09;31.60;;;21.70;;
48861;SDS011;34681;49.188;-0.374;2022-12-18T12:35:52;25.43;;;18.90;;
48861;SDS011;34681;49.188;-0.374;2022-12-18T12:38:42;25.77;;;20.63;;
48861;SDS011;34681;49.188;-0.374;2022-12-18T12:41:12;31.13;;;23.53;;
48861;SDS011;34681;49.188;-0.374;2022-12-18T12:43:58;29.20;;;22.03;;
48861;SDS011;34681;49.188;-0.374;2022-12-18T12:46:28;32.50;;;24.30;;
48861;SDS011;34681;49.188;-0.374;2022-12-18T12:49:02;26.47;;;22.97;;
48861;SDS011;34681;49.188;-0.374;2022-12-18T12:51:36;32.77;;;23.53;;
48861;SDS011;34681;49.188;-0.374;2022-12-18T12:54:06;28.40;;;23.33;;
48861;SDS011;34681;49.188;-0.374;2022-12-18T12:56:38;29.17;;;22.70;;
48861;SDS011;34681;49.188;-0.374;2022-12-18T13:02:06;31.20;;;24.07;;
48861;SDS011;34681;49.188;-0.374;2022-12-18T13:04:37;34.17;;;26.37;;
48861;SDS011;34681;49.188;-0.374;2022-12-18T13:07:17;32.80;;;24.10;;
48861;SDS011;34681;49.188;-0.374;2022-12-18T13:12:57;31.07;;;26.00;;
48861;SDS011;34681;49.188;-0.374;2022-12-18T13:15:28;31.07;;;26.17;;
48861;SDS011;34681;49.188;-0.374;2022-12-18T13:20:40;32.50;;;25.60;;
48861;SDS011;34681;49.188;-0.374;2022-12-18T13:23:25;34.47;;;27.00;;
48861;SDS011;34681;49.188;-0.374;2022-12-18T13:31:11;32.67;;;25.97;;
48861;SDS011;34681;49.188;-0.374;2022-12-18T13:33:38;31.47;;;25.40;;
48861;SDS011;34681;49.188;-0.374;2022-12-18T13:36:14;31.03;;;25.30;;
48861;SDS011;34681;49.188;-0.374;2022-12-18T13:38:40;31.10;;;26.10;;
48861;SDS011;34681;49.188;-0.374;2022-12-18T13:46:29;31.50;;;25.20;;
48861;SDS011;34681;49.188;-0.374;2022-12-18T13:51:42;28.73;;;24.20;;
48861;SDS011;34681;49.188;-0.374;2022-12-18T13:54:30;30.20;;;24.20;;
48861;SDS011;34681;49.188;-0.374;2022-12-18T13:57:00;33.63;;;26.57;;
48861;SDS011;34681;49.188;-0.374;2022-12-18T13:59:34;36.07;;;27.43;;
48861;SDS011;34681;49.188;-0.374;2022-12-18T14:05:03;30.67;;;25.03;;
48861;SDS011;34681;49.188;-0.374;2022-12-18T14:07:29;32.70;;;24.70;;
48861;SDS011;34681;49.188;-0.374;2022-12-18T14:09:56;29.73;;;25.10;;
48861;SDS011;34681;49.188;-0.374;2022-12-18T14:12:25;32.63;;;25.67;;
48861;SDS011;34681;49.188;-0.374;2022-12-18T14:15:47;30.57;;;23.93;;
48861;SDS011;34681;49.188;-0.374;2022-12-18T14:18:18;27.73;;;24.77;;
48861;SDS011;34681;49.188;-0.374;2022-12-18T14:20:44;27.70;;;24.07;;
48861;SDS011;34681;49.188;-0.374;2022-12-18T14:28:56;33.43;;;24.60;;
48861;SDS011;34681;49.188;-0.374;2022-12-18T14:31:26;32.77;;;26.50;;
48861;SDS011;34681;49.188;-0.374;2022-12-18T14:33:53;28.17;;;24.90;;
48861;SDS011;34681;49.188;-0.374;2022-12-18T14:36:20;28.90;;;24.73;;
48861;SDS011;34681;49.188;-0.374;2022-12-18T14:38:48;33.03;;;24.67;;
48861;SDS011;34681;49.188;-0.374;2022-12-18T14:41:16;30.00;;;25.43;;
48861;SDS011;34681;49.188;-0.374;2022-12-18T14:43:44;34.43;;;26.93;;
48861;SDS011;34681;49.188;-0.374;2022-12-18T14:46:34;34.20;;;25.93;;
48861;SDS011;34681;49.188;-0.374;2022-12-18T14:49:23;36.07;;;28.50;;
48861;SDS011;34681;49.188;-0.374;2022-12-18T14:52:02;34.67;;;28.67;;
48861;SDS011;34681;49.188;-0.374;2022-12-18T14:54:29;39.50;;;31.27;;
48861;SDS011;34681;49.188;-0.374;2022-12-18T14:57:18;33.73;;;25.07;;
48861;SDS011;34681;49.188;-0.374;2022-12-18T14:59:55;34.70;;;26.87;;
48861;SDS011;34681;49.188;-0.374;2022-12-18T15:02:30;30.47;;;25.57;;
48861;SDS011;34681;49.188;-0.374;2022-12-18T15:07:41;30.47;;;25.23;;
48861;SDS011;34681;49.188;-0.374;2022-12-18T15:10:19;37.17;;;29.30;;
48861;SDS011;34681;49.188;-0.374;2022-12-18T15:18:02;31.60;;;25.40;;
48861;SDS011;34681;49.188;-0.374;2022-12-18T15:20:31;33.37;;;26.00;;
48861;SDS011;34681;49.188;-0.374;2022-12-18T15:23:03;35.07;;;27.20;;
48861;SDS011;34681;49.188;-0.374;2022-12-18T15:25:34;32.53;;;27.50;;
48861;SDS011;34681;49.188;-0.374;2022-12-18T15:28:02;38.17;;;31.20;;
48861;SDS011;34681;49.188;-0.374;2022-12-18T15:30:28;34.20;;;28.80;;
48861;SDS011;34681;49.188;-0.374;2022-12-18T15:33:16;29.70;;;25.50;;
48861;SDS011;34681;49.188;-0.374;2022-12-18T15:36:03;33.30;;;28.30;;
48861;SDS011;34681;49.188;-0.374;2022-12-18T15:38:30;31.97;;;26.43;;
48861;SDS011;34681;49.188;-0.374;2022-12-18T15:40:56;33.90;;;27.77;;
48861;SDS011;34681;49.188;-0.374;2022-12-18T15:43:22;38.97;;;26.50;;
48861;SDS011;34681;49.188;-0.374;2022-12-18T15:48:44;31.33;;;25.03;;
48861;SDS011;34681;49.188;-0.374;2022-12-18T15:51:15;28.20;;;22.70;;
48861;SDS011;34681;49.188;-0.374;2022-12-18T15:53:43;35.57;;;27.23;;
48861;SDS011;34681;49.188;-0.374;2022-12-18T15:56:10;26.67;;;23.43;;
48861;SDS011;34681;49.188;-0.374;2022-12-18T15:58:55;30.83;;;26.07;;
48861;SDS011;34681;49.188;-0.374;2022-12-18T16:01:21;26.53;;;22.60;;
48861;SDS011;34681;49.188;-0.374;2022-12-18T16:03:48;26.93;;;21.20;;
48861;SDS011;34681;49.188;-0.374;2022-12-18T16:06:14;22.20;;;19.83;;
48861;SDS011;34681;49.188;-0.374;2022-12-18T16:08:39;24.60;;;20.57;;
48861;SDS011;34681;49.188;-0.374;2022-12-18T16:11:05;30.27;;;24.30;;